This is the latest recevied weather packets stored in our database for station/object WX5KDM. If no packets are shown the sender has not sent any weather packets the latest 10 day(s).
| Time | Temp. | Humidity | Pressure | Rain* | Wind** | Luminosity | Snow |
|---|---|---|---|---|---|---|---|
| 1777925617 | 27.22° C | 41% | 1013.2 hPa | 0 mm | - | - | - |
| 1777925314 | 27.22° C | 40% | 1013.3 hPa | 0 mm | - | - | - |
| 1777925011 | 26.67° C | 43% | 1013.4 hPa | 0 mm | - | - | - |
| 1777924707 | 27.22° C | 39% | 1013.6 hPa | 0 mm | - | - | - |
| 1777924403 | 26.67° C | 41% | 1013.6 hPa | 0 mm | - | - | - |
| 1777924100 | 26.67° C | 42% | 1013.7 hPa | 0 mm | - | - | - |
| 1777923796 | 26.67° C | 42% | 1013.7 hPa | 0 mm | - | - | - |
| 1777923492 | 26.11° C | 43% | 1013.8 hPa | 0 mm | - | - | - |
| 1777923190 | 26.67° C | 42% | 1013.8 hPa | 0 mm | - | - | - |
| 1777922888 | 25.56° C | 46% | 1013.9 hPa | 0 mm | - | - | - |
| 1777922586 | 26.11° C | 44% | 1014 hPa | 0 mm | - | - | - |
| 1777922284 | 26.11° C | 44% | 1014 hPa | 0 mm | - | - | - |
| 1777921981 | 26.11° C | 42% | 1014.1 hPa | 0 mm | - | - | - |
| 1777921676 | 26.11° C | 44% | 1014.1 hPa | 0 mm | - | - | - |
| 1777921373 | 26.11° C | 44% | 1014.3 hPa | 0 mm | - | - | - |
| 1777921069 | 26.11° C | 43% | 1014.1 hPa | 0 mm | - | - | - |
| 1777920767 | 26.67° C | 42% | 1014.1 hPa | 0 mm | - | - | - |
| 1777920462 | 26.67° C | 44% | 1014.3 hPa | 0 mm | - | - | - |
| 1777920158 | 26.11° C | 42% | 1014.1 hPa | 0 mm | - | - | - |
| 1777919854 | 25.56° C | 44% | 1014.3 hPa | 0 mm | - | - | - |
| 1777919552 | 26.11° C | 41% | 1014.2 hPa | 0 mm | - | - | - |
| 1777919250 | 26.11° C | 43% | 1014.3 hPa | 0 mm | - | - | - |
| 1777918947 | 26.11° C | 41% | 1014.5 hPa | 0 mm | - | - | - |
| 1777918644 | 26.11° C | 45% | 1014.4 hPa | 0 mm | - | - | - |
| 1777918341 | 26.11° C | 46% | 1014.4 hPa | 0 mm | - | - | - |
* Rain latest hour (hover to see other rain measurements)
** Current wind speed in m/s (hover to see current wind gust speed)